Time,TemperatureF,DewpointF,PressureIn,WindDirection,WindDirectionDegrees,WindSpeedMPH,WindSpeedGustMPH,Humidity,HourlyPrecipIn,Conditions,Clouds,dailyrainin,SoftwareType,DateUTC
2013-08-20 00:08:00,72.7,64.0,29.98,SSE,149,0.0,1.0,75,0.00,,,0.00,weatherlink.com 1.10,2013-08-20 05:08:00,
2013-08-20 00:23:00,72.3,64.0,29.99,SE,134,0.0,1.0,76,0.00,,,0.00,weatherlink.com 1.10,2013-08-20 05:23:00,
2013-08-20 00:38:00,71.9,64.0,29.99,SE,138,0.0,0.0,77,0.00,,,0.00,weatherlink.com 1.10,2013-08-20 05:38:00,
2013-08-20 00:53:00,71.9,65.0,29.99,SE,142,0.0,1.0,78,0.00,,,0.00,weatherlink.com 1.10,2013-08-20 05:53:00,
2013-08-20 01:08:00,71.1,64.0,29.99,SE,142,0.0,1.0,79,0.00,,,0.00,weatherlink.com 1.10,2013-08-20 06:08:00,
2013-08-20 01:23:00,70.7,64.0,29.99,SSE,155,0.0,0.0,80,0.00,,,0.00,weatherlink.com 1.10,2013-08-20 06:23:00,
2013-08-20 01:38:00,70.3,64.0,29.98,SSE,152,0.0,0.0,81,0.00,,,0.00,weatherlink.com 1.10,2013-08-20 06:38:00,
2013-08-20 01:53:00,70.1,64.0,29.98,SE,127,0.0,1.0,81,0.00,,,0.00,weatherlink.com 1.10,2013-08-20 06:53:00,
2013-08-20 02:08:00,69.7,64.0,29.98,SE,146,0.0,0.0,82,0.00,,,0.00,weatherlink.com 1.10,2013-08-20 07:08:00,
2013-08-20 02:23:00,69.4,64.0,29.98,SSE,159,0.0,0.0,82,0.00,,,0.00,weatherlink.com 1.10,2013-08-20 07:23:00,
2013-08-20 02:38:00,69.2,64.0,29.98,SSE,156,0.0,1.0,82,0.00,,,0.00,weatherlink.com 1.10,2013-08-20 07:38:00,
2013-08-20 02:53:00,69.0,63.0,29.98,SE,146,0.0,1.0,82,0.00,,,0.00,weatherlink.com 1.10,2013-08-20 07:53:00,
2013-08-20 03:08:00,68.8,63.0,29.98,SE,128,0.0,1.0,82,0.00,,,0.00,weatherlink.com 1.10,2013-08-20 08:08:00,
2013-08-20 03:23:00,68.2,63.0,29.98,SSE,162,0.0,0.0,83,0.00,,,0.00,weatherlink.com 1.10,2013-08-20 08:23:00,
2013-08-20 03:38:00,68.1,63.0,29.98,SE,129,0.0,1.0,83,0.00,,,0.00,weatherlink.com 1.10,2013-08-20 08:38:00,
2013-08-20 03:53:00,68.0,63.0,29.98,ESE,105,0.0,2.0,83,0.00,,,0.00,weatherlink.com 1.10,2013-08-20 08:53:00,
2013-08-20 04:08:00,67.9,63.0,29.98,SE,129,0.0,1.0,83,0.00,,,0.00,weatherlink.com 1.10,2013-08-20 09:08:00,
2013-08-20 04:24:00,67.5,63.0,29.99,ESE,117,0.0,0.0,84,0.00,,,0.00,weatherlink.com 1.10,2013-08-20 09:24:00,
2013-08-20 04:38:00,66.8,62.0,29.98,ESE,117,0.0,0.0,85,0.00,,,0.00,weatherlink.com 1.10,2013-08-20 09:38:00,
2013-08-20 04:53:00,66.0,62.0,29.98,ESE,117,0.0,0.0,87,0.00,,,0.00,weatherlink.com 1.10,2013-08-20 09:53:00,
2013-08-20 05:08:00,65.8,62.0,29.99,SE,135,0.0,1.0,87,0.00,,,0.00,weatherlink.com 1.10,2013-08-20 10:08:00,
2013-08-20 05:23:00,66.1,62.0,29.98,SE,142,0.0,1.0,86,0.00,,,0.00,weatherlink.com 1.10,2013-08-20 10:23:00,
2013-08-20 05:38:00,65.5,61.0,29.98,SE,127,0.0,1.0,86,0.00,,,0.00,weatherlink.com 1.10,2013-08-20 10:38:00,
2013-08-20 05:53:00,-999.0,-99.9,29.99,North,-999,-999.0,-999.0,-999,0.00,,,0.00,weatherlink.com 1.10,2013-08-20 10:53:00,
2013-08-20 06:09:00,-999.0,-99.9,30.00,North,-999,-999.0,-999.0,-999,0.00,,,0.00,weatherlink.com 1.10,2013-08-20 11:09:00,
2013-08-20 06:24:00,-999.0,-99.9,30.00,North,-999,-999.0,-999.0,-999,0.00,,,0.00,weatherlink.com 1.10,2013-08-20 11:24:00,
2013-08-20 06:39:00,-999.0,-99.9,30.00,North,-999,-999.0,-999.0,-999,0.00,,,0.00,weatherlink.com 1.10,2013-08-20 11:39:00,
2013-08-20 06:54:00,-999.0,-99.9,30.01,North,-999,-999.0,-999.0,-999,0.00,,,0.00,weatherlink.com 1.10,2013-08-20 11:54:00,
2013-08-20 07:09:00,-999.0,-99.9,30.01,North,-999,-999.0,-999.0,-999,0.00,,,0.00,weatherlink.com 1.10,2013-08-20 12:09:00,
2013-08-20 07:24:00,-999.0,-99.9,30.01,North,-999,-999.0,-999.0,-999,0.00,,,0.00,weatherlink.com 1.10,2013-08-20 12:24:00,
2013-08-20 07:39:00,-999.0,-99.9,30.02,North,-999,-999.0,-999.0,-999,0.00,,,0.00,weatherlink.com 1.10,2013-08-20 12:39:00,
2013-08-20 07:54:00,64.7,62.0,30.02,ESE,119,1.0,1.0,92,0.00,,,0.00,weatherlink.com 1.10,2013-08-20 12:54:00,
2013-08-20 08:09:00,68.1,64.0,30.02,SE,141,0.0,1.0,86,0.00,,,0.00,weatherlink.com 1.10,2013-08-20 13:09:00,
2013-08-20 08:24:00,71.1,65.0,30.02,SSE,152,0.0,1.0,81,0.00,,,0.00,weatherlink.com 1.10,2013-08-20 13:24:00,
2013-08-20 08:40:00,74.3,66.0,30.02,SE,134,0.0,2.0,74,0.00,,,0.00,weatherlink.com 1.10,2013-08-20 13:40:00,
2013-08-20 08:54:00,75.6,66.0,30.02,SE,138,1.0,4.0,72,0.00,,,0.00,weatherlink.com 1.10,2013-08-20 13:54:00,
2013-08-20 09:09:00,76.7,66.0,30.02,SSE,156,0.0,4.0,69,0.00,,,0.00,weatherlink.com 1.10,2013-08-20 14:09:00,
2013-08-20 09:24:00,78.3,66.0,30.02,ESE,121,1.0,4.0,67,0.00,,,0.00,weatherlink.com 1.10,2013-08-20 14:24:00,
2013-08-20 09:39:00,80.2,66.0,30.02,East,94,3.0,5.0,63,0.00,,,0.00,weatherlink.com 1.10,2013-08-20 14:39:00,
2013-08-20 09:54:00,81.3,66.0,30.02,SE,139,2.0,5.0,61,0.00,,,0.00,weatherlink.com 1.10,2013-08-20 14:54:00,
2013-08-20 10:09:00,82.7,67.0,30.02,SW,227,2.0,5.0,59,0.00,,,0.00,weatherlink.com 1.10,2013-08-20 15:09:00,
2013-08-20 10:24:00,83.9,67.0,30.02,SSE,159,3.0,4.0,58,0.00,,,0.00,weatherlink.com 1.10,2013-08-20 15:24:00,
2013-08-20 10:39:00,85.9,67.0,30.02,SSE,158,1.0,5.0,53,0.00,,,0.00,weatherlink.com 1.10,2013-08-20 15:39:00,
2013-08-20 10:54:00,87.3,67.0,30.02,ESE,111,2.0,5.0,51,0.00,,,0.00,weatherlink.com 1.10,2013-08-20 15:54:00,
2013-08-20 11:09:00,88.8,67.0,30.02,SSW,212,3.0,6.0,48,0.00,,,0.00,weatherlink.com 1.10,2013-08-20 16:09:00,
2013-08-20 11:24:00,89.7,66.0,30.02,SSE,156,2.0,7.0,46,0.00,,,0.00,weatherlink.com 1.10,2013-08-20 16:24:00,
2013-08-20 11:39:00,90.7,67.0,30.01,WSW,250,6.0,8.0,45,0.00,,,0.00,weatherlink.com 1.10,2013-08-20 16:39:00,
2013-08-20 11:54:00,91.2,65.0,30.01,SSE,162,2.0,8.0,42,0.00,,,0.00,weatherlink.com 1.10,2013-08-20 16:54:00,
2013-08-20 12:09:00,92.1,65.0,30.01,SSE,150,0.0,10.0,41,0.00,,,0.00,weatherlink.com 1.10,2013-08-20 17:09:00,
2013-08-20 12:24:00,92.5,62.0,30.00,SE,146,4.0,9.0,36,0.00,,,0.00,weatherlink.com 1.10,2013-08-20 17:24:00,
2013-08-20 12:39:00,93.3,63.0,30.00,WNW,291,3.0,10.0,36,0.00,,,0.00,weatherlink.com 1.10,2013-08-20 17:39:00,
2013-08-20 12:54:00,92.3,62.0,30.00,SSE,156,8.0,8.0,37,0.00,,,0.00,weatherlink.com 1.10,2013-08-20 17:54:00,
2013-08-20 13:09:00,92.4,63.0,30.00,South,177,5.0,9.0,37,0.00,,,0.00,weatherlink.com 1.10,2013-08-20 18:09:00,
2013-08-20 13:24:00,93.3,61.0,29.99,South,176,2.0,7.0,34,0.00,,,0.00,weatherlink.com 1.10,2013-08-20 18:24:00,
2013-08-20 13:39:00,92.6,61.0,29.99,ENE,72,1.0,8.0,35,0.00,,,0.00,weatherlink.com 1.10,2013-08-20 18:39:00,
2013-08-20 13:54:00,94.5,64.0,29.98,SE,139,3.0,6.0,36,0.00,,,0.00,weatherlink.com 1.10,2013-08-20 18:54:00,
2013-08-20 14:09:00,95.5,63.0,29.98,ENE,76,2.0,8.0,34,0.00,,,0.00,weatherlink.com 1.10,2013-08-20 19:09:00,
2013-08-20 14:24:00,93.3,63.0,29.98,ESE,121,4.0,7.0,37,0.00,,,0.00,weatherlink.com 1.10,2013-08-20 19:24:00,
2013-08-20 14:39:00,94.0,62.0,29.97,ESE,111,5.0,7.0,35,0.00,,,0.00,weatherlink.com 1.10,2013-08-20 19:39:00,
2013-08-20 14:54:00,95.2,62.0,29.97,SE,131,3.0,11.0,33,0.00,,,0.00,weatherlink.com 1.10,2013-08-20 19:54:00,
2013-08-20 15:09:00,95.0,63.0,29.96,SE,134,4.0,11.0,35,0.00,,,0.00,weatherlink.com 1.10,2013-08-20 20:09:00,
2013-08-20 15:24:00,96.1,64.0,29.96,South,179,4.0,6.0,34,0.00,,,0.00,weatherlink.com 1.10,2013-08-20 20:24:00,
2013-08-20 15:39:00,95.9,63.0,29.95,SE,128,2.0,6.0,34,0.00,,,0.00,weatherlink.com 1.10,2013-08-20 20:39:00,
2013-08-20 15:54:00,95.4,63.0,29.95,South,172,5.0,10.0,34,0.00,,,0.00,weatherlink.com 1.10,2013-08-20 20:54:00,
2013-08-20 16:09:00,94.9,62.0,29.94,NE,47,2.0,11.0,34,0.00,,,0.00,weatherlink.com 1.10,2013-08-20 21:09:00,
2013-08-20 16:24:00,94.4,62.0,29.94,SE,131,3.0,10.0,34,0.00,,,0.00,weatherlink.com 1.10,2013-08-20 21:24:00,
2013-08-20 16:39:00,94.4,63.0,29.94,ENE,70,6.0,12.0,35,0.00,,,0.00,weatherlink.com 1.10,2013-08-20 21:39:00,
2013-08-20 16:54:00,93.9,63.0,29.94,ENE,66,2.0,7.0,36,0.00,,,0.00,weatherlink.com 1.10,2013-08-20 21:54:00,
2013-08-20 17:09:00,94.5,62.0,29.94,ESE,110,3.0,11.0,34,0.00,,,0.00,weatherlink.com 1.10,2013-08-20 22:09:00,
2013-08-20 17:24:00,94.7,61.0,29.93,SE,142,1.0,8.0,33,0.00,,,0.00,weatherlink.com 1.10,2013-08-20 22:24:00,
2013-08-20 17:39:00,94.6,62.0,29.93,SE,142,2.0,7.0,34,0.00,,,0.00,weatherlink.com 1.10,2013-08-20 22:39:00,
2013-08-20 17:54:00,94.0,62.0,29.93,SSE,153,4.0,9.0,35,0.00,,,0.00,weatherlink.com 1.10,2013-08-20 22:54:00,
2013-08-20 18:09:00,93.0,62.0,29.93,NE,56,1.0,7.0,36,0.00,,,0.00,weatherlink.com 1.10,2013-08-20 23:09:00,
2013-08-20 18:24:00,93.1,62.0,29.93,East,99,3.0,5.0,36,0.00,,,0.00,weatherlink.com 1.10,2013-08-20 23:24:00,
2013-08-20 18:39:00,92.8,62.0,29.92,NNW,344,2.0,7.0,36,0.00,,,0.00,weatherlink.com 1.10,2013-08-20 23:39:00,
2013-08-20 18:54:00,92.6,62.0,29.92,NNE,33,0.0,3.0,36,0.00,,,0.00,weatherlink.com 1.10,2013-08-20 23:54:00,
2013-08-20 19:09:00,92.1,61.0,29.92,SSE,150,1.0,5.0,35,0.00,,,0.00,weatherlink.com 1.10,2013-08-21 00:09:00,
2013-08-20 19:25:00,90.6,61.0,29.93,SE,134,0.0,3.0,37,0.00,,,0.00,weatherlink.com 1.10,2013-08-21 00:25:00,
2013-08-20 19:40:00,88.9,61.0,29.93,SE,134,0.0,1.0,39,0.00,,,0.00,weatherlink.com 1.10,2013-08-21 00:40:00,
2013-08-20 19:55:00,86.8,62.0,29.93,ESE,119,0.0,0.0,44,0.00,,,0.00,weatherlink.com 1.10,2013-08-21 00:55:00,
2013-08-20 20:10:00,84.7,62.0,29.93,SE,139,0.0,1.0,46,0.00,,,0.00,weatherlink.com 1.10,2013-08-21 01:10:00,
2013-08-20 20:25:00,82.4,62.0,29.93,SE,137,0.0,1.0,51,0.00,,,0.00,weatherlink.com 1.10,2013-08-21 01:25:00,
2013-08-20 20:40:00,80.3,62.0,29.93,SE,139,0.0,1.0,53,0.00,,,0.00,weatherlink.com 1.10,2013-08-21 01:40:00,
2013-08-20 20:55:00,79.3,62.0,29.94,SE,146,0.0,1.0,55,0.00,,,0.00,weatherlink.com 1.10,2013-08-21 01:55:00,
2013-08-20 21:11:00,78.5,62.0,29.95,SE,142,0.0,1.0,57,0.00,,,0.00,weatherlink.com 1.10,2013-08-21 02:11:00,
2013-08-20 21:25:00,77.6,62.0,29.95,SSE,156,0.0,0.0,59,0.00,,,0.00,weatherlink.com 1.10,2013-08-21 02:25:00,
2013-08-20 21:40:00,76.5,62.0,29.96,SSW,203,0.0,1.0,61,0.00,,,0.00,weatherlink.com 1.10,2013-08-21 02:40:00,
2013-08-20 21:55:00,76.2,62.0,29.96,SSE,149,0.0,1.0,62,0.00,,,0.00,weatherlink.com 1.10,2013-08-21 02:55:00,
2013-08-20 22:10:00,75.0,62.0,29.96,SSE,149,0.0,0.0,65,0.00,,,0.00,weatherlink.com 1.10,2013-08-21 03:10:00,
2013-08-20 22:25:00,73.5,62.0,29.97,SSE,150,0.0,0.0,68,0.00,,,0.00,weatherlink.com 1.10,2013-08-21 03:25:00,
2013-08-20 22:41:00,72.7,62.0,29.97,SSE,149,0.0,0.0,69,0.00,,,0.00,weatherlink.com 1.10,2013-08-21 03:41:00,
2013-08-20 22:55:00,72.9,62.0,29.98,SSE,163,0.0,0.0,69,0.00,,,0.00,weatherlink.com 1.10,2013-08-21 03:55:00,
2013-08-20 23:10:00,71.8,62.0,29.98,SSE,164,0.0,0.0,71,0.00,,,0.00,weatherlink.com 1.10,2013-08-21 04:10:00,
2013-08-20 23:25:00,70.9,62.0,29.98,SSE,163,0.0,0.0,73,0.00,,,0.00,weatherlink.com 1.10,2013-08-21 04:25:00,
2013-08-20 23:40:00,70.2,62.0,29.98,SSE,163,0.0,0.0,75,0.00,,,0.00,weatherlink.com 1.10,2013-08-21 04:40:00,
2013-08-20 23:55:00,69.4,62.0,29.99,SSE,164,0.0,0.0,77,0.00,,,0.00,weatherlink.com 1.10,2013-08-21 04:55:00,